createdAt,value
2023-03-27T00:01:25.304Z,97984.41
2023-03-27T00:03:53.425Z,97984.22
2023-03-27T00:06:21.884Z,97994.09
2023-03-27T00:08:51.022Z,97991.00
2023-03-27T00:11:19.139Z,97992.03
2023-03-27T00:13:50.075Z,97983.78
2023-03-27T00:16:22.595Z,98000.38
2023-03-27T00:18:49.316Z,98001.63
2023-03-27T00:21:15.933Z,97998.38
2023-03-27T00:23:42.660Z,97999.38
2023-03-27T00:26:09.924Z,98002.22
2023-03-27T00:28:37.186Z,98009.25
2023-03-27T00:31:04.102Z,98007.09
2023-03-27T00:33:30.785Z,98005.03
2023-03-27T00:35:57.426Z,98006.44
2023-03-27T00:38:24.475Z,98017.13
2023-03-27T00:40:54.391Z,98017.41
2023-03-27T00:43:21.710Z,98029.81
2023-03-27T00:45:52.638Z,98034.88
2023-03-27T00:48:20.704Z,98044.81
2023-03-27T00:50:49.989Z,98049.88
2023-03-27T00:53:20.640Z,98046.41
2023-03-27T00:55:49.191Z,98059.44
2023-03-27T00:58:32.077Z,98054.06
2023-03-27T01:00:59.141Z,98067.78
2023-03-27T01:03:30.167Z,98064.72
2023-03-27T01:06:00.334Z,98080.03
2023-03-27T01:08:29.855Z,98077.25
2023-03-27T01:11:20.736Z,98084.63
2023-03-27T01:13:50.322Z,98076.13
2023-03-27T01:16:27.446Z,98093.25
2023-03-27T01:19:12.417Z,98102.28
2023-03-27T01:21:54.278Z,98107.47
2023-03-27T01:24:48.403Z,98095.59
2023-03-27T01:27:52.672Z,98118.31
2023-03-27T01:30:29.602Z,98115.19
2023-03-27T01:33:08.482Z,98127.31
2023-03-27T01:35:50.583Z,98139.44
2023-03-27T01:38:19.884Z,98139.69
2023-03-27T01:41:01.416Z,98142.75
2023-03-27T01:44:00.762Z,98144.50
2023-03-27T01:46:35.687Z,98148.56
2023-03-27T01:49:15.630Z,98161.41
2023-03-27T01:51:49.093Z,98169.41
2023-03-27T01:54:29.814Z,98172.53
2023-03-27T01:57:16.084Z,98172.72
2023-03-27T01:59:46.417Z,98182.03
2023-03-27T02:02:31.048Z,98189.75
2023-03-27T02:05:12.503Z,98198.03
2023-03-27T02:07:48.769Z,98211.94
2023-03-27T02:10:21.746Z,98212.41
2023-03-27T02:12:59.978Z,98218.09
2023-03-27T02:15:32.748Z,98220.69
2023-03-27T02:18:05.117Z,98221.97
2023-03-27T02:20:37.549Z,98230.44
2023-03-27T02:23:06.411Z,98229.09
2023-03-27T02:25:45.273Z,98233.47
2023-03-27T02:28:53.648Z,98240.19
2023-03-27T02:31:40.559Z,98242.94
2023-03-27T02:34:11.925Z,98248.38
2023-03-27T02:36:44.633Z,98262.00
2023-03-27T02:39:16.000Z,98269.25
2023-03-27T02:41:42.461Z,98280.31
2023-03-27T02:44:46.293Z,98291.56
2023-03-27T02:47:30.790Z,98294.63
2023-03-27T02:50:09.724Z,98295.88
2023-03-27T02:52:45.486Z,98307.50
2023-03-27T02:55:19.523Z,98306.69
2023-03-27T02:57:54.846Z,98313.38
2023-03-27T03:00:37.478Z,98325.53
2023-03-27T03:03:27.636Z,98334.31
2023-03-27T03:06:06.955Z,98337.19
2023-03-27T03:08:38.351Z,98336.63
2023-03-27T03:11:10.717Z,98340.00
2023-03-27T03:13:38.144Z,98347.00
2023-03-27T03:16:05.425Z,98360.81
2023-03-27T03:18:33.319Z,98359.47
2023-03-27T03:21:00.437Z,98371.53
2023-03-27T03:23:27.113Z,98373.38
2023-03-27T03:25:56.860Z,98378.00
2023-03-27T03:28:26.999Z,98378.56
2023-03-27T03:30:54.159Z,98383.69
2023-03-27T03:33:21.675Z,98388.06
2023-03-27T03:35:51.537Z,98400.44
2023-03-27T03:38:29.600Z,98404.09
2023-03-27T03:41:07.020Z,98409.38
2023-03-27T03:43:34.501Z,98425.25
2023-03-27T03:46:01.633Z,98424.50
2023-03-27T03:48:28.312Z,98439.25
2023-03-27T03:50:55.168Z,98444.94
2023-03-27T03:53:22.526Z,98442.06
2023-03-27T03:55:52.674Z,98447.56
2023-03-27T03:58:19.766Z,98455.13
2023-03-27T04:00:47.136Z,98457.72
2023-03-27T04:03:32.323Z,98455.84
2023-03-27T04:06:05.672Z,98471.09
2023-03-27T04:08:33.424Z,98478.81
2023-03-27T04:11:02.707Z,98487.63
2023-03-27T04:13:58.422Z,98488.38
2023-03-27T04:16:34.324Z,98502.03
2023-03-27T04:19:08.107Z,98503.34
2023-03-27T04:21:37.850Z,98506.94
2023-03-27T04:24:05.345Z,98510.31
2023-03-27T04:26:43.352Z,98518.28
2023-03-27T04:29:25.826Z,98521.91
2023-03-27T04:32:19.356Z,98519.41
2023-03-27T04:35:12.701Z,98523.78
2023-03-27T04:37:47.977Z,98524.81
2023-03-27T04:40:49.141Z,98525.16
2023-03-27T04:43:17.357Z,98543.69
2023-03-27T04:45:47.448Z,98544.47
2023-03-27T04:48:15.236Z,98542.22
2023-03-27T04:50:49.246Z,98558.22
2023-03-27T04:53:31.059Z,98562.00
2023-03-27T04:55:58.106Z,98566.16
2023-03-27T04:58:28.424Z,98580.03
2023-03-27T05:00:57.558Z,98580.31
2023-03-27T05:03:42.967Z,98588.88
2023-03-27T05:06:16.100Z,98586.31
2023-03-27T05:08:42.859Z,98590.38
2023-03-27T05:11:18.999Z,98592.97
2023-03-27T05:13:45.721Z,98597.59
2023-03-27T05:16:17.281Z,98609.19
2023-03-27T05:18:46.431Z,98613.56
2023-03-27T05:21:13.510Z,98617.63
2023-03-27T05:23:40.201Z,98629.75
2023-03-27T05:26:07.822Z,98633.22
2023-03-27T05:28:52.492Z,98630.25
2023-03-27T05:31:19.324Z,98636.44
2023-03-27T05:34:05.690Z,98642.59
2023-03-27T05:36:35.393Z,98646.41
2023-03-27T05:39:02.156Z,98644.69
2023-03-27T05:41:35.414Z,98645.78
2023-03-27T05:44:04.864Z,98648.34
2023-03-27T05:46:36.304Z,98655.03
2023-03-27T05:49:15.438Z,98660.41
2023-03-27T05:51:46.804Z,98662.13
2023-03-27T05:54:19.372Z,98668.06
2023-03-27T05:56:54.486Z,98671.66
2023-03-27T05:59:21.553Z,98680.59
2023-03-27T06:01:51.901Z,98680.53
2023-03-27T06:04:24.430Z,98685.63
2023-03-27T06:07:04.848Z,98687.44
2023-03-27T06:09:32.856Z,98706.75
2023-03-27T06:12:29.372Z,98711.41
2023-03-27T06:15:08.506Z,98714.78
2023-03-27T06:17:41.162Z,98719.16
2023-03-27T06:20:15.005Z,98730.78
2023-03-27T06:22:55.528Z,98734.56
2023-03-27T06:25:32.191Z,98737.13
2023-03-27T06:27:59.204Z,98731.75
2023-03-27T06:30:26.860Z,98740.25
2023-03-27T06:33:22.865Z,98751.97
2023-03-27T06:35:53.292Z,98752.34
2023-03-27T06:38:30.944Z,98758.28
2023-03-27T06:40:59.527Z,98756.97
2023-03-27T06:43:39.177Z,98760.97
2023-03-27T06:46:13.663Z,98778.13
2023-03-27T06:49:00.270Z,98770.16
2023-03-27T06:51:27.044Z,98782.28
2023-03-27T06:53:54.015Z,98789.16
2023-03-27T06:56:21.838Z,98783.69
2023-03-27T06:59:07.260Z,98790.59
2023-03-27T07:01:34.118Z,98791.38
2023-03-27T07:04:18.859Z,98791.06
2023-03-27T07:06:53.331Z,98789.56
2023-03-27T07:09:20.335Z,98796.19
2023-03-27T07:11:57.572Z,98806.03
2023-03-27T07:14:24.292Z,98815.47
2023-03-27T07:16:51.332Z,98816.06
2023-03-27T07:19:19.004Z,98815.75
2023-03-27T07:21:51.049Z,98830.13
2023-03-27T07:24:17.665Z,98829.13
2023-03-27T07:26:44.254Z,98835.84
2023-03-27T07:29:20.843Z,98839.09
2023-03-27T07:34:29.692Z,98845.97
2023-03-27T07:37:11.328Z,98843.78
2023-03-27T07:39:48.267Z,98857.63
2023-03-27T07:42:15.486Z,98857.94
2023-03-27T07:44:52.612Z,98871.78
2023-03-27T07:47:20.850Z,98868.38
2023-03-27T07:49:47.514Z,98865.06
2023-03-27T07:52:19.941Z,98874.63
2023-03-27T07:54:56.867Z,98872.34
2023-03-27T07:57:29.549Z,98866.31
2023-03-27T08:00:12.892Z,98872.34
2023-03-27T08:02:51.923Z,98871.31
2023-03-27T08:05:19.692Z,98891.69
2023-03-27T08:07:56.170Z,98890.19
2023-03-27T08:10:40.292Z,98875.16
2023-03-27T08:13:08.349Z,98887.50
2023-03-27T08:15:35.029Z,98887.91
2023-03-27T08:18:03.015Z,98895.59
2023-03-27T08:20:30.581Z,98890.84
2023-03-27T08:22:58.447Z,98897.88
2023-03-27T08:25:52.137Z,98895.63
2023-03-27T08:28:21.850Z,98904.25
2023-03-27T08:30:48.542Z,98900.66
2023-03-27T08:33:16.980Z,98897.81
2023-03-27T08:38:26.002Z,98917.97
2023-03-27T08:41:38.645Z,98918.53
2023-03-27T08:44:26.410Z,98918.22
2023-03-27T08:47:05.060Z,98919.41
2023-03-27T08:49:43.040Z,98912.59
2023-03-27T08:52:33.001Z,98921.09
2023-03-27T08:55:18.572Z,98915.63
2023-03-27T08:58:19.432Z,98915.22
2023-03-27T09:00:57.506Z,98916.09
2023-03-27T09:03:32.052Z,98914.06
2023-03-27T09:06:34.056Z,98914.84
2023-03-27T09:09:38.812Z,98914.47
2023-03-27T09:12:34.010Z,98921.69
2023-03-27T09:15:15.867Z,98922.63
2023-03-27T09:17:56.909Z,98933.16
2023-03-27T09:20:29.956Z,98936.91
2023-03-27T09:23:05.465Z,98933.78
2023-03-27T09:25:59.294Z,98928.72
2023-03-27T09:28:53.429Z,98936.38
2023-03-27T09:31:46.890Z,98935.38
2023-03-27T09:34:28.888Z,98945.84
2023-03-27T09:36:59.180Z,98946.47
2023-03-27T09:39:32.488Z,98965.84
2023-03-27T09:42:28.886Z,98959.53
2023-03-27T09:44:58.797Z,98962.38
2023-03-27T09:47:40.757Z,98965.91
2023-03-27T09:50:26.268Z,98960.06
2023-03-27T09:53:16.013Z,98971.00
2023-03-27T09:55:53.121Z,98975.56
2023-03-27T09:58:25.299Z,98973.66
2023-03-27T10:01:08.484Z,98968.19
2023-03-27T10:03:48.537Z,98978.28
2023-03-27T10:06:25.555Z,98972.22
2023-03-27T10:09:19.334Z,98968.06
2023-03-27T10:11:48.242Z,98967.19
2023-03-27T10:14:26.120Z,98969.38
2023-03-27T10:16:54.472Z,98970.84
2023-03-27T10:19:27.788Z,98984.44
2023-03-27T10:21:56.866Z,98995.72
2023-03-27T10:24:36.036Z,98998.44
2023-03-27T10:27:31.454Z,99000.66
2023-03-27T10:30:28.532Z,98991.03
2023-03-27T10:33:07.288Z,99003.13
2023-03-27T10:35:48.931Z,98989.97
2023-03-27T10:38:35.684Z,98992.06
2023-03-27T10:41:36.829Z,99006.72
2023-03-27T10:44:21.357Z,99013.34
2023-03-27T10:46:54.981Z,99020.88
2023-03-27T10:49:34.842Z,99019.56
2023-03-27T10:52:31.091Z,99008.56
2023-03-27T10:55:12.486Z,99014.38
2023-03-27T10:57:43.090Z,99021.84
2023-03-27T11:00:20.883Z,99011.28
2023-03-27T11:03:36.428Z,99027.13
2023-03-27T11:06:13.873Z,99022.78
2023-03-27T11:08:48.393Z,99024.13
2023-03-27T11:11:25.618Z,99035.66
2023-03-27T11:14:02.140Z,99033.34
2023-03-27T11:16:42.288Z,99037.75
2023-03-27T11:19:45.864Z,99045.28
2023-03-27T11:22:33.681Z,99043.47
2023-03-27T11:25:14.009Z,99032.28
2023-03-27T11:27:48.141Z,99041.66
2023-03-27T11:30:32.950Z,99032.88
2023-03-27T11:33:25.553Z,99042.22
2023-03-27T11:36:06.567Z,99049.75
2023-03-27T11:38:59.349Z,99055.91
2023-03-27T11:41:26.975Z,99055.00
2023-03-27T11:43:53.668Z,99065.03
2023-03-27T11:47:19.626Z,99067.66
2023-03-27T11:50:05.712Z,99068.13
2023-03-27T11:52:57.091Z,99059.88
2023-03-27T11:56:09.665Z,99066.59
2023-03-27T11:59:01.520Z,99059.44
2023-03-27T12:01:48.502Z,99063.28
2023-03-27T12:04:37.774Z,99055.13
2023-03-27T12:07:47.366Z,99062.81
2023-03-27T12:10:33.771Z,99059.47
2023-03-27T12:13:38.658Z,99062.50
2023-03-27T12:16:35.894Z,99068.78
2023-03-27T12:19:28.583Z,99076.63
2023-03-27T12:22:24.844Z,99057.53
2023-03-27T12:24:59.961Z,99068.53
2023-03-27T12:28:06.433Z,99060.13
2023-03-27T12:31:01.625Z,99053.34
2023-03-27T12:33:54.084Z,99072.81
2023-03-27T12:36:24.277Z,99076.34
2023-03-27T12:38:54.193Z,99071.88
2023-03-27T12:41:23.365Z,99066.28
2023-03-27T12:44:13.307Z,99062.19
2023-03-27T12:47:22.925Z,99068.59
2023-03-27T12:49:59.746Z,99070.38
2023-03-27T12:52:32.913Z,99068.09
2023-03-27T12:55:15.944Z,99067.34
2023-03-27T12:58:05.390Z,99065.25
2023-03-27T13:00:41.217Z,99074.91
2023-03-27T13:03:46.972Z,99062.97
2023-03-27T13:06:29.550Z,99060.88
2023-03-27T13:09:23.133Z,99070.06
2023-03-27T13:12:13.753Z,99077.53
2023-03-27T13:15:03.743Z,99080.97
2023-03-27T13:17:56.176Z,99084.72
2023-03-27T13:20:45.370Z,99100.34
2023-03-27T13:23:32.923Z,99088.00
2023-03-27T13:26:10.442Z,99094.34
2023-03-27T13:28:48.568Z,99094.50
2023-03-27T13:31:49.463Z,99093.56
2023-03-27T13:34:37.508Z,99101.50
2023-03-27T13:37:11.243Z,99101.84
2023-03-27T13:40:01.510Z,99097.41
2023-03-27T13:42:39.778Z,99108.28
2023-03-27T13:45:20.536Z,99110.88
2023-03-27T13:48:40.887Z,99112.97
2023-03-27T13:51:32.687Z,99110.44
2023-03-27T13:54:06.594Z,99119.94
2023-03-27T13:56:56.659Z,99126.59
2023-03-27T13:59:43.741Z,99132.41
2023-03-27T14:02:45.611Z,99138.88
2023-03-27T14:05:20.329Z,99142.13
2023-03-27T14:08:06.114Z,99138.28
2023-03-27T14:11:11.053Z,99161.69
2023-03-27T14:14:07.523Z,99140.41
2023-03-27T14:17:12.680Z,99139.41
2023-03-27T14:19:45.796Z,99137.88
2023-03-27T14:23:00.598Z,99144.09
2023-03-27T14:25:40.988Z,99152.50
2023-03-27T14:28:35.228Z,99158.06
2023-03-27T14:31:08.403Z,99181.13
2023-03-27T14:34:01.032Z,99187.72
2023-03-27T14:36:33.947Z,99201.16
2023-03-27T14:39:22.721Z,99202.94
2023-03-27T14:42:02.214Z,99195.06
2023-03-27T14:44:32.477Z,99199.81
2023-03-27T14:47:09.985Z,99193.56
2023-03-27T14:49:45.816Z,99198.75
2023-03-27T14:52:33.346Z,99197.19
2023-03-27T14:55:37.030Z,99191.97
2023-03-27T14:58:25.012Z,99203.06
2023-03-27T15:01:01.707Z,99204.06
2023-03-27T15:03:35.293Z,99210.00
2023-03-27T15:06:04.588Z,99209.94
2023-03-27T15:08:50.192Z,99205.56
2023-03-27T15:11:55.581Z,99221.78
2023-03-27T15:14:28.962Z,99213.03
2023-03-27T15:17:19.191Z,99227.56
2023-03-27T15:20:00.488Z,99221.13
2023-03-27T15:22:35.217Z,99216.50
2023-03-27T15:25:17.680Z,99219.31
2023-03-27T15:27:53.993Z,99212.03
2023-03-27T15:30:25.637Z,99210.72
2023-03-27T15:32:54.905Z,99213.88
2023-03-27T15:35:33.423Z,99229.63
2023-03-27T15:38:02.306Z,99230.59
2023-03-27T15:40:58.609Z,99229.88
2023-03-27T15:43:28.143Z,99229.00
2023-03-27T15:46:17.683Z,99225.69
2023-03-27T15:48:48.311Z,99232.69
2023-03-27T15:51:21.050Z,99231.63
2023-03-27T15:53:58.744Z,99232.66
2023-03-27T15:56:42.370Z,99236.34
2023-03-27T15:59:15.573Z,99231.44
2023-03-27T16:01:53.173Z,99235.59
2023-03-27T16:04:39.124Z,99232.53
2023-03-27T16:07:42.899Z,99247.22
2023-03-27T16:10:10.763Z,99257.63
2023-03-27T16:12:51.722Z,99260.13
2023-03-27T16:15:36.563Z,99258.13
2023-03-27T16:18:32.573Z,99267.41
2023-03-27T16:21:28.289Z,99253.38
2023-03-27T16:23:56.976Z,99270.78
2023-03-27T16:26:30.791Z,99260.84
2023-03-27T16:29:05.377Z,99262.59
2023-03-27T16:31:33.490Z,99260.91
2023-03-27T16:34:01.954Z,99262.31
2023-03-27T16:36:33.446Z,99271.78
2023-03-27T16:39:01.738Z,99278.75
2023-03-27T16:41:29.932Z,99274.63
2023-03-27T16:43:58.006Z,99282.75
2023-03-27T16:46:29.437Z,99288.09
2023-03-27T16:48:58.048Z,99295.84
2023-03-27T16:51:29.526Z,99298.13
2023-03-27T16:53:57.917Z,99304.63
2023-03-27T16:56:26.304Z,99306.59
2023-03-27T16:58:54.745Z,99302.50
2023-03-27T17:01:24.628Z,99309.59
2023-03-27T17:03:52.839Z,99309.59
2023-03-27T17:06:23.257Z,99310.31
2023-03-27T17:08:56.201Z,99308.56
2023-03-27T17:11:25.009Z,99316.31
2023-03-27T17:13:53.368Z,99320.94
2023-03-27T17:16:21.458Z,99355.63
2023-03-27T17:18:50.557Z,99368.75
2023-03-27T17:21:19.262Z,99375.94
2023-03-27T17:23:49.268Z,99391.81
2023-03-27T17:26:32.675Z,99392.75
2023-03-27T17:29:01.923Z,99390.44
2023-03-27T17:31:31.050Z,99411.97
2023-03-27T17:34:00.643Z,99398.41
2023-03-27T17:36:40.205Z,99395.66
2023-03-27T17:39:12.002Z,99402.06
2023-03-27T17:41:40.204Z,99405.72
2023-03-27T17:44:11.272Z,99412.25
2023-03-27T17:46:40.781Z,99419.69
2023-03-27T17:49:08.570Z,99441.81
2023-03-27T17:51:37.819Z,99434.88
2023-03-27T17:54:05.943Z,99444.31
2023-03-27T17:56:34.764Z,99446.09
2023-03-27T17:59:04.028Z,99435.66
2023-03-27T18:01:31.524Z,99423.97
2023-03-27T18:04:00.375Z,99406.47
2023-03-27T18:06:27.236Z,99409.31
2023-03-27T18:08:54.315Z,99418.47
2023-03-27T18:11:21.616Z,99411.16
2023-03-27T18:13:52.815Z,99417.72
2023-03-27T18:16:20.233Z,99418.50
2023-03-27T18:18:47.458Z,99419.94
2023-03-27T18:21:16.215Z,99430.75
2023-03-27T18:23:45.924Z,99435.59
2023-03-27T18:26:13.888Z,99445.72
2023-03-27T18:28:40.607Z,99450.91
2023-03-27T18:31:09.509Z,99447.88
2023-03-27T18:33:36.526Z,99455.00
2023-03-27T18:36:06.847Z,99457.97
2023-03-27T18:38:33.519Z,99448.41
2023-03-27T18:41:00.513Z,99447.34
2023-03-27T18:43:27.389Z,99449.97
2023-03-27T18:46:08.192Z,99458.06
2023-03-27T18:48:35.294Z,99454.88
2023-03-27T18:51:04.400Z,99452.44
2023-03-27T18:53:31.487Z,99458.06
2023-03-27T18:55:58.925Z,99454.19
2023-03-27T18:58:27.682Z,99451.59
2023-03-27T19:00:58.287Z,99451.06
2023-03-27T19:03:30.267Z,99453.44
2023-03-27T19:06:01.189Z,99454.59
2023-03-27T19:08:29.156Z,99450.28
2023-03-27T19:10:57.340Z,99458.00
2023-03-27T19:13:42.868Z,99456.28
2023-03-27T19:16:32.923Z,99468.09
2023-03-27T19:19:19.073Z,99468.94
2023-03-27T19:21:52.780Z,99464.81
2023-03-27T19:24:26.064Z,99471.78
2023-03-27T19:26:52.946Z,99463.91
2023-03-27T19:29:20.219Z,99464.34
2023-03-27T19:31:46.909Z,99468.25
2023-03-27T19:34:13.614Z,99462.91
2023-03-27T19:36:40.498Z,99468.44
2023-03-27T19:39:07.161Z,99461.34
2023-03-27T19:41:33.888Z,99469.44
2023-03-27T19:44:00.817Z,99470.97
2023-03-27T19:46:29.045Z,99469.75
2023-03-27T19:48:56.482Z,99466.78
2023-03-27T19:51:32.238Z,99474.06
2023-03-27T19:53:58.827Z,99464.16
2023-03-27T19:56:26.542Z,99474.44
2023-03-27T19:58:53.484Z,99471.88
2023-03-27T20:01:20.123Z,99465.34
2023-03-27T20:03:47.068Z,99465.78
2023-03-27T20:06:19.598Z,99469.53
2023-03-27T20:08:46.663Z,99460.25
2023-03-27T20:11:15.337Z,99459.69
2023-03-27T20:13:55.484Z,99458.09
2023-03-27T20:16:26.569Z,99460.03
2023-03-27T20:19:04.339Z,99458.25
2023-03-27T20:21:39.772Z,99458.63
2023-03-27T20:24:12.171Z,99466.94
2023-03-27T20:26:41.999Z,99464.19
2023-03-27T20:29:18.489Z,99466.78
2023-03-27T20:31:46.142Z,99465.59
2023-03-27T20:34:13.026Z,99472.53
2023-03-27T20:36:40.010Z,99467.81
2023-03-27T20:39:19.016Z,99463.09
2023-03-27T20:41:46.999Z,99463.66
2023-03-27T20:44:16.558Z,99464.28
2023-03-27T20:46:51.888Z,99464.50
2023-03-27T20:51:55.817Z,99472.78
2023-03-27T20:54:22.613Z,99469.63
2023-03-27T20:56:49.261Z,99464.28
2023-03-27T20:59:17.515Z,99465.44
2023-03-27T21:01:44.216Z,99457.88
2023-03-27T21:04:13.319Z,99462.28
2023-03-27T21:06:41.389Z,99462.47
2023-03-27T21:09:09.314Z,99458.84
2023-03-27T21:11:36.410Z,99457.16
2023-03-27T21:14:03.904Z,99462.47
2023-03-27T21:16:30.623Z,99457.13
2023-03-27T21:18:57.262Z,99455.28
2023-03-27T21:21:23.939Z,99468.94
2023-03-27T21:23:51.513Z,99463.00
2023-03-27T21:26:18.117Z,99455.13
2023-03-27T21:28:44.872Z,99453.34
2023-03-27T21:31:11.892Z,99453.97
2023-03-27T21:33:38.591Z,99459.16
2023-03-27T21:36:05.749Z,99458.59
2023-03-27T21:38:32.471Z,99452.88
2023-03-27T21:41:01.935Z,99445.34
2023-03-27T21:43:29.217Z,99448.13
2023-03-27T21:45:55.925Z,99448.94
2023-03-27T21:48:22.519Z,99450.75
2023-03-27T21:50:49.206Z,99449.97
2023-03-27T21:53:17.031Z,99446.44
2023-03-27T21:55:46.333Z,99444.44
2023-03-27T21:58:12.871Z,99450.53
2023-03-27T22:00:39.501Z,99448.94
2023-03-27T22:03:06.847Z,99443.94
2023-03-27T22:05:36.610Z,99445.72
2023-03-27T22:08:03.904Z,99440.00
2023-03-27T22:10:30.809Z,99445.72
2023-03-27T22:12:57.396Z,99442.53
2023-03-27T22:15:24.151Z,99443.47
2023-03-27T22:17:50.839Z,99441.69
2023-03-27T22:20:17.534Z,99443.88
2023-03-27T22:22:44.085Z,99438.16
2023-03-27T22:25:10.774Z,99439.94
2023-03-27T22:27:37.403Z,99443.31
2023-03-27T22:30:04.492Z,99439.75
2023-03-27T22:32:31.368Z,99451.44
2023-03-27T22:34:58.122Z,99451.03
2023-03-27T22:37:25.140Z,99448.47
2023-03-27T22:39:53.000Z,99446.47
2023-03-27T22:42:19.637Z,99449.44
2023-03-27T22:44:46.258Z,99454.03
2023-03-27T22:47:12.779Z,99452.22
2023-03-27T22:49:39.400Z,99459.16
2023-03-27T22:52:06.164Z,99456.00
2023-03-27T22:54:32.814Z,99460.59
2023-03-27T22:56:59.420Z,99461.38
2023-03-27T22:59:26.116Z,99464.53
2023-03-27T23:01:52.861Z,99466.88
2023-03-27T23:04:19.441Z,99459.59
2023-03-27T23:06:46.012Z,99466.50
2023-03-27T23:09:12.560Z,99461.16
2023-03-27T23:11:39.191Z,99475.75
2023-03-27T23:14:06.072Z,99470.25
2023-03-27T23:16:33.319Z,99471.81
2023-03-27T23:18:59.946Z,99481.47
2023-03-27T23:21:26.566Z,99472.50
2023-03-27T23:23:53.181Z,99471.25
2023-03-27T23:26:19.813Z,99473.41
2023-03-27T23:28:46.428Z,99462.91
2023-03-27T23:31:15.676Z,99470.19
2023-03-27T23:33:47.589Z,99474.56
2023-03-27T23:36:23.282Z,99466.41
2023-03-27T23:38:51.518Z,99468.56
2023-03-27T23:41:19.243Z,99465.19
2023-03-27T23:43:46.195Z,99465.00
2023-03-27T23:46:13.314Z,99460.06
2023-03-27T23:48:42.141Z,99464.41
2023-03-27T23:51:10.192Z,99461.84
2023-03-27T23:53:37.772Z,99463.06
2023-03-27T23:56:04.873Z,99465.41
2023-03-27T23:58:35.038Z,99464.47
